createdAt,value
2022-09-25T00:01:38.969Z,25.43
2022-09-25T00:06:41.498Z,27.80
2022-09-25T00:11:43.154Z,28.30
2022-09-25T00:16:44.863Z,32.37
2022-09-25T00:21:48.714Z,31.77
2022-09-25T00:26:50.413Z,31.13
2022-09-25T00:31:52.340Z,27.70
2022-09-25T00:36:53.964Z,32.80
2022-09-25T00:41:55.600Z,31.73
2022-09-25T00:46:57.435Z,33.00
2022-09-25T00:52:06.303Z,27.40
2022-09-25T00:57:10.038Z,29.60
2022-09-25T01:02:14.627Z,30.90
2022-09-25T01:07:16.770Z,28.70
2022-09-25T01:12:18.444Z,32.03
2022-09-25T01:17:28.287Z,29.67
2022-09-25T01:23:04.530Z,28.30
2022-09-25T01:28:36.930Z,29.90
2022-09-25T01:33:43.864Z,35.40
2022-09-25T01:38:47.427Z,30.77
2022-09-25T01:44:03.996Z,28.47
2022-09-25T01:49:08.225Z,31.50
2022-09-25T01:54:11.939Z,28.30
2022-09-25T01:59:35.610Z,26.10
2022-09-25T02:04:38.745Z,27.40
2022-09-25T02:09:54.869Z,27.80
2022-09-25T02:15:02.069Z,27.63
2022-09-25T02:20:22.867Z,30.57
2022-09-25T02:25:40.031Z,28.33
2022-09-25T02:30:41.779Z,27.27
2022-09-25T02:35:43.454Z,30.30
2022-09-25T02:41:02.254Z,31.47
2022-09-25T02:46:13.595Z,29.43
2022-09-25T02:51:40.859Z,29.17
2022-09-25T02:56:49.083Z,30.33
2022-09-25T03:01:50.816Z,28.40
2022-09-25T03:06:52.588Z,29.73
2022-09-25T03:11:55.070Z,29.73
2022-09-25T03:16:57.540Z,29.17
2022-09-25T03:21:59.234Z,30.17
2022-09-25T03:27:00.862Z,29.10
2022-09-25T03:32:02.890Z,27.13
2022-09-25T03:37:05.040Z,28.47
2022-09-25T03:42:06.675Z,27.50
2022-09-25T03:47:08.279Z,25.17
2022-09-25T03:52:14.511Z,32.50
2022-09-25T03:57:16.146Z,24.17
2022-09-25T04:02:17.821Z,25.63
2022-09-25T04:07:19.467Z,27.97
2022-09-25T04:12:21.274Z,28.50
2022-09-25T04:17:22.886Z,30.97
2022-09-25T04:22:24.680Z,34.10
2022-09-25T04:27:27.816Z,32.80
2022-09-25T04:32:48.050Z,35.17
2022-09-25T04:37:49.719Z,63.67
2022-09-25T04:42:58.043Z,42.07
2022-09-25T04:48:00.048Z,66.33
2022-09-25T04:53:01.714Z,41.13
2022-09-25T04:58:03.337Z,58.90
2022-09-25T05:03:05.123Z,51.70
2022-09-25T05:08:07.375Z,38.10
2022-09-25T05:13:11.121Z,59.47
2022-09-25T05:18:17.504Z,45.40
2022-09-25T05:23:19.195Z,54.57
2022-09-25T05:28:20.826Z,80.40
2022-09-25T05:33:22.500Z,41.77
2022-09-25T05:38:24.127Z,45.87
2022-09-25T05:43:26.010Z,53.57
2022-09-25T05:48:27.664Z,46.40
2022-09-25T05:53:30.531Z,43.30
2022-09-25T05:58:33.669Z,37.53
2022-09-25T06:03:36.054Z,34.63
2022-09-25T06:08:37.681Z,35.00
2022-09-25T06:13:39.312Z,36.00
2022-09-25T06:18:40.933Z,27.57
2022-09-25T06:23:44.844Z,26.97
2022-09-25T06:28:46.567Z,30.50
2022-09-25T06:33:50.734Z,27.87
2022-09-25T06:38:55.722Z,29.57
2022-09-25T06:43:57.345Z,26.93
2022-09-25T06:48:58.995Z,26.73
2022-09-25T06:54:00.689Z,26.07
2022-09-25T06:59:02.363Z,30.33
2022-09-25T07:04:04.440Z,27.90
2022-09-25T07:09:06.206Z,26.23
2022-09-25T07:14:09.460Z,22.57
2022-09-25T07:19:11.097Z,24.90
2022-09-25T07:24:12.866Z,32.07
2022-09-25T07:29:14.523Z,21.87
2022-09-25T07:34:16.350Z,18.17
2022-09-25T07:39:18.803Z,18.57
2022-09-25T07:44:29.507Z,14.50
2022-09-25T07:49:34.896Z,11.37
2022-09-25T07:54:37.660Z,15.83
2022-09-25T07:59:39.288Z,16.83
2022-09-25T08:04:40.998Z,15.40
2022-09-25T08:09:42.708Z,11.63
2022-09-25T08:14:44.331Z,11.13
2022-09-25T08:19:46.221Z,13.30
2022-09-25T08:24:49.223Z,11.53
2022-09-25T08:29:50.914Z,13.57
2022-09-25T08:34:52.872Z,11.67
2022-09-25T08:39:54.532Z,11.00
2022-09-25T08:45:21.449Z,7.80
2022-09-25T08:50:24.548Z,14.13
2022-09-25T08:55:49.005Z,13.60
2022-09-25T09:00:54.509Z,10.80
2022-09-25T09:05:59.286Z,12.33
2022-09-25T09:11:18.731Z,12.93
2022-09-25T09:16:26.967Z,13.30
2022-09-25T09:21:38.996Z,18.40
2022-09-25T09:26:52.665Z,19.07
2022-09-25T09:32:16.627Z,21.37
2022-09-25T09:37:22.894Z,21.27
2022-09-25T09:42:44.391Z,19.77
2022-09-25T09:48:04.038Z,20.33
2022-09-25T09:53:40.276Z,20.20
2022-09-25T09:58:50.508Z,20.97
2022-09-25T10:04:10.683Z,26.07
2022-09-25T10:09:14.665Z,15.07
2022-09-25T10:14:21.752Z,18.70
2022-09-25T10:19:24.930Z,16.40
2022-09-25T10:24:51.247Z,16.00
2022-09-25T10:30:22.357Z,13.90
2022-09-25T10:35:29.657Z,12.60
2022-09-25T10:40:35.895Z,16.23
2022-09-25T10:45:40.588Z,15.20
2022-09-25T10:50:42.927Z,12.83
2022-09-25T10:55:46.229Z,14.77
2022-09-25T11:00:51.597Z,13.43
2022-09-25T11:06:20.813Z,16.77
2022-09-25T11:11:26.872Z,16.30
2022-09-25T11:17:08.203Z,12.13
2022-09-25T11:22:26.539Z,18.20
2022-09-25T11:27:45.167Z,13.33
2022-09-25T11:32:58.719Z,13.87
2022-09-25T11:38:45.147Z,13.10
2022-09-25T11:44:05.920Z,17.80
2022-09-25T11:49:19.041Z,11.03
2022-09-25T11:54:41.203Z,13.90
2022-09-25T12:00:06.982Z,11.20
2022-09-25T12:05:40.732Z,10.43
2022-09-25T12:10:56.405Z,8.93
2022-09-25T12:16:02.688Z,9.47
2022-09-25T12:21:10.544Z,19.77
2022-09-25T12:26:27.341Z,7.87
2022-09-25T12:31:31.476Z,5.87
2022-09-25T12:37:01.451Z,7.13
2022-09-25T12:42:09.955Z,9.20
2022-09-25T12:47:40.393Z,9.00
2022-09-25T12:53:21.582Z,9.03
2022-09-25T12:58:41.436Z,6.40
2022-09-25T13:04:00.914Z,7.97
2022-09-25T13:09:17.265Z,7.60
2022-09-25T13:14:39.905Z,11.90
2022-09-25T13:19:41.683Z,9.60
2022-09-25T13:24:45.208Z,12.13
2022-09-25T13:29:52.335Z,13.50
2022-09-25T13:35:00.397Z,14.83
2022-09-25T13:40:30.724Z,13.67
2022-09-25T13:45:34.237Z,11.97
2022-09-25T13:50:36.756Z,14.20
2022-09-25T13:55:42.439Z,11.93
2022-09-25T14:00:50.455Z,17.30
2022-09-25T14:05:52.442Z,9.53
2022-09-25T14:10:54.822Z,13.07
2022-09-25T14:15:58.454Z,7.93
2022-09-25T14:21:00.290Z,5.70
2022-09-25T14:26:07.273Z,7.97
2022-09-25T14:31:39.711Z,5.60
2022-09-25T14:37:00.427Z,8.03
2022-09-25T14:42:26.659Z,8.73
2022-09-25T14:47:33.770Z,8.10
2022-09-25T14:52:35.694Z,4.77
2022-09-25T14:57:39.586Z,3.43
2022-09-25T15:02:42.490Z,6.87
2022-09-25T15:07:44.527Z,8.73
2022-09-25T15:12:46.215Z,11.67
2022-09-25T15:17:53.296Z,1.77
2022-09-25T15:22:56.913Z,3.70
2022-09-25T15:27:59.314Z,3.23
2022-09-25T15:33:01.316Z,4.03
2022-09-25T15:38:08.242Z,3.67
2022-09-25T15:43:14.076Z,6.93
2022-09-25T15:48:32.832Z,4.93
2022-09-25T15:53:44.873Z,4.63
2022-09-25T15:59:16.751Z,4.93
2022-09-25T16:04:40.473Z,7.37
2022-09-25T16:09:42.099Z,6.13
2022-09-25T16:14:43.755Z,5.23
2022-09-25T16:19:45.401Z,8.07
2022-09-25T16:24:50.803Z,5.83
2022-09-25T16:29:52.516Z,5.80
2022-09-25T16:35:01.322Z,6.83
2022-09-25T16:40:20.699Z,4.73
2022-09-25T16:45:29.390Z,3.83
2022-09-25T16:50:33.310Z,18.60
2022-09-25T16:55:47.345Z,7.17
2022-09-25T17:00:49.615Z,7.70
2022-09-25T17:05:51.308Z,16.70
2022-09-25T17:10:53.039Z,9.27
2022-09-25T17:15:56.566Z,15.80
2022-09-25T17:20:59.665Z,16.30
2022-09-25T17:26:06.562Z,12.10
2022-09-25T17:31:12.403Z,13.67
2022-09-25T17:36:14.235Z,14.87
2022-09-25T17:41:25.964Z,15.80
2022-09-25T17:46:27.735Z,13.87
2022-09-25T17:51:29.938Z,13.37
2022-09-25T17:56:31.633Z,12.53
2022-09-25T18:01:38.866Z,13.53
2022-09-25T18:06:43.442Z,9.83
2022-09-25T18:11:45.235Z,11.23
2022-09-25T18:16:46.939Z,16.33
2022-09-25T18:22:07.265Z,17.20
2022-09-25T18:27:09.147Z,18.93
2022-09-25T18:32:10.840Z,20.03
2022-09-25T18:37:12.662Z,21.40
2022-09-25T18:42:14.458Z,23.30
2022-09-25T18:47:16.214Z,28.03
2022-09-25T18:52:17.907Z,26.17
2022-09-25T18:57:19.564Z,35.63
2022-09-25T19:02:21.267Z,31.40
2022-09-25T19:07:27.230Z,30.07
2022-09-25T19:12:28.994Z,23.57
2022-09-25T19:17:31.100Z,33.43
2022-09-25T19:22:33.511Z,33.40
2022-09-25T19:27:35.336Z,32.67
2022-09-25T19:32:37.422Z,26.17
2022-09-25T19:37:39.195Z,27.23
2022-09-25T19:42:40.840Z,24.63
2022-09-25T19:47:42.522Z,18.47
2022-09-25T19:52:47.665Z,18.13
2022-09-25T19:57:52.970Z,16.83
2022-09-25T20:02:54.682Z,13.63
2022-09-25T20:07:56.412Z,19.60
2022-09-25T20:12:58.154Z,23.03
2022-09-25T20:17:59.910Z,16.77
2022-09-25T20:23:01.599Z,16.17
2022-09-25T20:28:03.298Z,16.47
2022-09-25T20:33:04.913Z,14.53
2022-09-25T20:38:10.974Z,17.47
2022-09-25T20:43:12.763Z,20.10
2022-09-25T20:48:18.050Z,21.57
2022-09-25T20:53:19.689Z,27.00
2022-09-25T20:58:21.371Z,28.80
2022-09-25T21:03:23.009Z,29.50
2022-09-25T21:08:25.770Z,30.67
2022-09-25T21:13:33.902Z,28.70
2022-09-25T21:18:36.041Z,28.10
2022-09-25T21:23:37.662Z,26.37
2022-09-25T21:28:40.413Z,23.93
2022-09-25T21:33:42.200Z,17.70
2022-09-25T21:38:43.836Z,16.47
2022-09-25T21:43:45.632Z,16.83
2022-09-25T21:48:58.092Z,14.17
2022-09-25T21:54:00.938Z,16.60
2022-09-25T21:59:08.723Z,12.47
2022-09-25T22:04:12.292Z,16.37
2022-09-25T22:09:18.883Z,18.03
2022-09-25T22:14:20.606Z,13.80
2022-09-25T22:19:27.047Z,22.50
2022-09-25T22:24:28.728Z,14.20
2022-09-25T22:29:30.835Z,14.13
2022-09-25T22:34:32.473Z,15.17
2022-09-25T22:39:34.107Z,13.53
2022-09-25T22:44:35.734Z,12.90
2022-09-25T22:49:37.368Z,17.13
2022-09-25T22:54:38.980Z,17.30
2022-09-25T22:59:40.591Z,15.53
2022-09-25T23:04:42.382Z,17.50
2022-09-25T23:09:44.150Z,10.37
2022-09-25T23:14:46.209Z,10.83
2022-09-25T23:19:47.881Z,10.13
2022-09-25T23:24:49.526Z,6.70
2022-09-25T23:29:51.149Z,12.53
2022-09-25T23:34:52.775Z,8.23
2022-09-25T23:39:54.400Z,10.87
2022-09-25T23:44:56.372Z,12.77
2022-09-25T23:50:03.505Z,10.67
2022-09-25T23:55:06.515Z,13.30
